Terminal Aerodrome Forecast
Issued by NWS

Home | Current Version | Previous Version | Text Only | Print | Product List | Glossary On
Versions: 1 2 3 4 5 6 7 8 9 10 11 12 13 14 15 16 17 18 19 20 21 22 23 24 25 26 27 28 29 30 31
000
FTUS41 KCTP 052359
TAFBFD
TAF
KBFD 052359Z 0600/0624 28005KT P6SM OVC025
     FM060600 VRB03KT P6SM BKN200
     FM061500 10005KT P6SM OVC050
     FM061800 13010G15KT 4SM -PLSNRA OVC025
     FM062000 14010G20KT 2SM -SNPL OVC009=

USA.gov is the U.S. government's official web portal to all federal, state and local government web resources and services.